createdAt,value
2022-10-23T00:00:36.616Z,54157.48
2022-10-23T00:01:40.042Z,54168.50
2022-10-23T00:02:43.818Z,54129.41
2022-10-23T00:03:47.022Z,54174.52
2022-10-23T00:04:50.310Z,54146.45
2022-10-23T00:05:53.595Z,54166.50
2022-10-23T00:06:56.476Z,54168.50
2022-10-23T00:07:59.747Z,54215.61
2022-10-23T00:09:03.546Z,54202.58
2022-10-23T00:10:06.622Z,54200.58
2022-10-23T00:11:10.022Z,54195.57
2022-10-23T00:12:13.292Z,54295.80
2022-10-23T00:13:16.472Z,54354.94
2022-10-23T00:14:19.355Z,54326.87
2022-10-23T00:15:22.438Z,54367.97
2022-10-23T00:16:25.510Z,54356.95
2022-10-23T00:17:28.985Z,54426.11
2022-10-23T00:18:32.089Z,54408.07
2022-10-23T00:19:35.064Z,54487.26
2022-10-23T00:20:37.927Z,54524.35
2022-10-23T00:21:41.314Z,54489.27
2022-10-23T00:22:44.294Z,54584.50
2022-10-23T00:23:47.205Z,54572.46
2022-10-23T00:24:50.045Z,54707.80
2022-10-23T00:25:53.539Z,54698.78
2022-10-23T00:26:56.819Z,54794.01
2022-10-23T00:28:00.406Z,54728.85
2022-10-23T00:29:03.603Z,54732.86
2022-10-23T00:30:06.662Z,54789.00
2022-10-23T00:31:09.845Z,54785.99
2022-10-23T00:32:12.962Z,54734.86
2022-10-23T00:33:15.805Z,54753.91
2022-10-23T00:34:18.777Z,54824.09
2022-10-23T00:35:22.164Z,54844.14
2022-10-23T00:36:25.458Z,54985.49
2022-10-23T00:37:28.241Z,55032.61
2022-10-23T00:38:31.300Z,55049.66
2022-10-23T00:39:34.484Z,55054.67
2022-10-23T00:40:37.663Z,55105.80
2022-10-23T00:41:40.855Z,55182.00
2022-10-23T00:42:44.250Z,55313.34
2022-10-23T00:43:47.304Z,55391.54
2022-10-23T00:44:50.397Z,55555.98
2022-10-23T00:45:53.272Z,58018.34
2022-10-23T00:46:56.367Z,58312.32
2022-10-23T00:47:59.526Z,58421.69
2022-10-23T00:49:02.860Z,58404.63
2022-10-23T00:50:05.689Z,58141.75
2022-10-23T00:51:08.965Z,58089.57
2022-10-23T00:52:12.167Z,57958.14
2022-10-23T00:53:15.345Z,57962.15
2022-10-23T00:54:25.846Z,57924.03
2022-10-23T00:55:22.926Z,57634.09
2022-10-23T00:56:26.416Z,57508.69
2022-10-23T00:58:32.067Z,58277.20
2022-10-23T00:59:34.843Z,58807.02
2022-10-23T01:00:37.669Z,59319.84
2022-10-23T01:01:40.729Z,59293.75
2022-10-23T01:02:43.916Z,59500.50
2022-10-23T01:03:47.398Z,59437.27
2022-10-23T01:04:50.749Z,59388.09
2022-10-23T01:05:55.153Z,59526.60
2022-10-23T01:06:58.339Z,59649.05
2022-10-23T01:08:02.142Z,59854.82
2022-10-23T01:09:05.321Z,59828.72
2022-10-23T01:10:08.595Z,59807.64
2022-10-23T01:11:11.785Z,59817.68
2022-10-23T01:12:14.550Z,59655.07
2022-10-23T01:13:17.433Z,59672.14
2022-10-23T01:14:20.662Z,59753.44
2022-10-23T01:15:23.689Z,59782.55
2022-10-23T01:16:26.773Z,59632.99
2022-10-23T01:17:29.848Z,59621.95
2022-10-23T01:18:32.695Z,59826.71
2022-10-23T01:19:35.498Z,59906.01
2022-10-23T01:20:42.074Z,59917.05
2022-10-23T01:21:45.245Z,59893.97
2022-10-23T01:22:48.619Z,59886.94
2022-10-23T01:23:51.804Z,59988.32
2022-10-23T01:24:54.992Z,60227.24
2022-10-23T01:25:58.501Z,60393.88
2022-10-23T01:27:01.456Z,60344.69
2022-10-23T01:28:04.640Z,60249.32
2022-10-23T01:29:07.815Z,60267.39
2022-10-23T01:30:10.799Z,60532.43
2022-10-23T01:31:13.979Z,60503.31
2022-10-23T01:32:16.883Z,60745.27
2022-10-23T01:33:19.524Z,60721.17
2022-10-23T01:34:23.326Z,60780.41
2022-10-23T01:35:26.299Z,60661.94
2022-10-23T01:36:29.486Z,60616.76
2022-10-23T01:37:32.565Z,60638.84
2022-10-23T01:38:35.835Z,60877.80
2022-10-23T01:39:38.939Z,60933.02
2022-10-23T01:40:41.901Z,60795.46
2022-10-23T01:41:44.514Z,60825.59
2022-10-23T01:42:47.949Z,60851.69
2022-10-23T01:43:51.045Z,60988.24
2022-10-23T01:44:55.168Z,60874.79
2022-10-23T01:45:58.626Z,60999.29
2022-10-23T01:47:02.402Z,61019.37
2022-10-23T01:48:05.307Z,61158.94
2022-10-23T01:49:13.085Z,61112.75
2022-10-23T01:50:16.404Z,61100.70
2022-10-23T01:51:19.348Z,61104.71
2022-10-23T01:52:23.080Z,60951.09
2022-10-23T01:53:25.924Z,60992.26
2022-10-23T01:54:29.003Z,60909.93
2022-10-23T01:55:32.096Z,60832.62
2022-10-23T01:56:35.569Z,60809.52
2022-10-23T01:57:41.848Z,60766.35
2022-10-23T01:58:45.308Z,60671.98
2022-10-23T01:59:48.795Z,60846.67
2022-10-23T02:00:52.077Z,60805.51
2022-10-23T02:02:01.829Z,60752.30
2022-10-23T02:03:05.200Z,60782.41
2022-10-23T02:04:08.818Z,60764.34
2022-10-23T02:05:12.181Z,60701.09
2022-10-23T02:06:15.365Z,60564.55
2022-10-23T02:07:18.444Z,60600.69
2022-10-23T02:08:22.035Z,60687.04
2022-10-23T02:09:25.319Z,60640.85
2022-10-23T02:10:29.218Z,60630.81
2022-10-23T02:11:32.189Z,60609.73
2022-10-23T02:12:36.402Z,60470.18
2022-10-23T02:13:41.236Z,60471.18
2022-10-23T02:14:44.809Z,60593.67
2022-10-23T02:15:47.787Z,60718.16
2022-10-23T02:16:50.965Z,60608.73
2022-10-23T02:17:57.145Z,60655.91
2022-10-23T02:18:59.883Z,60683.02
2022-10-23T02:20:02.977Z,60975.19
2022-10-23T02:21:05.948Z,61305.54
2022-10-23T02:22:09.236Z,61204.12
2022-10-23T02:23:19.486Z,61155.93
2022-10-23T02:24:24.927Z,61273.41
2022-10-23T02:25:27.780Z,61369.80
2022-10-23T02:26:30.968Z,61499.34
2022-10-23T02:27:33.845Z,61528.46
2022-10-23T02:28:37.136Z,61375.83
2022-10-23T02:29:44.511Z,61368.80
2022-10-23T02:30:47.686Z,61292.48
2022-10-23T02:31:51.998Z,61320.60
2022-10-23T02:32:57.431Z,61316.58
2022-10-23T02:34:00.407Z,61413.99
2022-10-23T02:35:03.905Z,61426.04
2022-10-23T02:36:07.800Z,61430.05
2022-10-23T02:37:11.366Z,61361.77
2022-10-23T02:38:15.053Z,61294.49
2022-10-23T02:39:18.782Z,61200.11
2022-10-23T02:40:21.851Z,61212.15
2022-10-23T02:41:25.136Z,61286.46
2022-10-23T02:43:49.424Z,61300.52
2022-10-23T02:45:04.861Z,61484.28
2022-10-23T02:46:14.945Z,61393.90
2022-10-23T02:47:27.968Z,61285.45
2022-10-23T02:48:31.048Z,61162.95
2022-10-23T02:49:36.872Z,61260.35
2022-10-23T02:50:41.352Z,61313.57
2022-10-23T02:51:47.192Z,61334.66
2022-10-23T02:52:58.918Z,61325.62
2022-10-23T02:54:03.637Z,61354.74
2022-10-23T02:55:10.596Z,61220.19
2022-10-23T02:56:17.176Z,61287.46
2022-10-23T02:57:19.927Z,61379.84
2022-10-23T02:58:23.331Z,61250.31
2022-10-23T02:59:34.030Z,61144.88
2022-10-23T03:00:37.306Z,61241.27
2022-10-23T03:01:55.395Z,61155.93
2022-10-23T03:03:10.314Z,61055.52
2022-10-23T03:04:20.502Z,61024.39
2022-10-23T03:05:23.165Z,60958.12
2022-10-23T03:07:49.397Z,60682.02
2022-10-23T03:08:52.534Z,60881.81
2022-10-23T03:09:55.792Z,60693.06
2022-10-23T03:11:00.110Z,60747.27
2022-10-23T03:12:03.045Z,60861.73
2022-10-23T03:13:10.699Z,60826.59
2022-10-23T03:15:35.396Z,60626.80
2022-10-23T03:16:38.303Z,60703.10
2022-10-23T03:19:01.835Z,60584.63
2022-10-23T03:20:05.548Z,60586.64
2022-10-23T03:21:09.459Z,60545.48
2022-10-23T03:22:12.661Z,60524.39
2022-10-23T03:23:15.439Z,60526.40
2022-10-23T03:24:19.523Z,60272.41
2022-10-23T03:25:23.216Z,60337.66
2022-10-23T03:26:34.624Z,60468.18
2022-10-23T03:27:38.386Z,60474.20
2022-10-23T03:28:44.645Z,60335.66
2022-10-23T03:29:48.944Z,60316.58
2022-10-23T03:30:56.538Z,60248.32
2022-10-23T03:32:07.466Z,60193.11
2022-10-23T03:33:11.088Z,60240.29
2022-10-23T03:34:14.780Z,60195.11
2022-10-23T03:35:17.554Z,60085.70
2022-10-23T03:36:27.803Z,60096.74
2022-10-23T03:38:51.881Z,60444.08
2022-10-23T03:39:54.961Z,60614.75
2022-10-23T03:41:00.548Z,60558.53
2022-10-23T03:42:17.098Z,60458.13
2022-10-23T03:44:44.702Z,60325.62
2022-10-23T03:45:50.810Z,60206.16
2022-10-23T03:46:54.196Z,60184.07
2022-10-23T03:47:58.406Z,60073.65
2022-10-23T03:49:03.427Z,60096.74
2022-10-23T03:51:26.881Z,59950.18
2022-10-23T03:52:30.277Z,59901.00
2022-10-23T03:53:36.500Z,59987.32
2022-10-23T03:54:53.536Z,59950.18
2022-10-23T03:55:57.052Z,60201.14
2022-10-23T03:57:00.312Z,60156.97
2022-10-23T03:58:03.809Z,60150.95
2022-10-23T03:59:06.766Z,60113.80
2022-10-23T04:00:24.389Z,60160.98
2022-10-23T04:01:33.564Z,60116.81
2022-10-23T04:02:36.892Z,59958.21
2022-10-23T04:03:40.706Z,59885.94
2022-10-23T04:04:43.982Z,59798.61
2022-10-23T04:05:48.239Z,59731.36
2022-10-23T04:06:51.031Z,59657.08
2022-10-23T04:07:54.143Z,59632.99
2022-10-23T04:09:00.110Z,59536.64
2022-10-23T04:10:03.580Z,59404.15
2022-10-23T04:11:06.854Z,59401.14
2022-10-23T04:12:09.920Z,59288.73
2022-10-23T04:13:23.079Z,59337.91
2022-10-23T04:14:39.582Z,59440.29
2022-10-23T04:15:46.623Z,59492.48
2022-10-23T04:16:49.907Z,59521.58
2022-10-23T04:20:44.867Z,59419.21
2022-10-23T04:21:59.828Z,59209.45
2022-10-23T04:23:07.155Z,59047.87
2022-10-23T04:24:15.575Z,58889.31
2022-10-23T04:25:25.925Z,58746.81
2022-10-23T04:27:52.572Z,58275.20
2022-10-23T04:28:58.086Z,57890.92
2022-10-23T04:30:18.473Z,57483.61
2022-10-23T04:34:19.234Z,55567.01
2022-10-23T04:36:46.159Z,55500.83
2022-10-23T04:37:54.570Z,55493.81
2022-10-23T04:38:58.162Z,55425.63
2022-10-23T04:40:01.332Z,55401.57
2022-10-23T04:41:07.946Z,55355.45
2022-10-23T04:46:28.992Z,55278.25
2022-10-23T04:47:32.945Z,55289.27
2022-10-23T04:50:14.128Z,55314.34
2022-10-23T04:52:47.301Z,55345.42
2022-10-23T05:09:51.198Z,55197.04
2022-10-23T05:12:17.464Z,55182.00
2022-10-23T05:25:34.855Z,55173.97
2022-10-23T05:27:59.269Z,55231.12
2022-10-23T08:10:35.858Z,54554.42
2022-10-23T08:14:41.833Z,54536.38
2022-10-23T08:21:31.106Z,54517.33
2022-10-23T08:32:18.320Z,54460.20
2022-10-23T10:09:09.181Z,54126.41
2022-10-23T10:10:21.948Z,54133.42
2022-10-23T10:12:51.702Z,54137.43
2022-10-23T10:21:00.779Z,54132.42
2022-10-23T10:25:00.564Z,54143.45
2022-10-23T10:31:31.093Z,54161.49
2022-10-23T10:36:41.167Z,54123.40
2022-10-23T10:47:32.008Z,54158.48
2022-10-23T10:51:34.828Z,54094.33
2022-10-23T11:00:43.472Z,54076.29
2022-10-23T11:33:47.944Z,54094.33
2022-10-23T11:35:07.275Z,54045.22
2022-10-23T11:36:12.007Z,54048.23
2022-10-23T11:37:22.660Z,54058.25
2022-10-23T11:39:50.201Z,54045.22
2022-10-23T11:40:58.301Z,54018.16
2022-10-23T11:44:55.185Z,53971.05
2022-10-23T11:53:14.290Z,54040.21
2022-10-23T11:56:59.406Z,54022.16
2022-10-23T12:04:22.017Z,54095.33
2022-10-23T12:06:35.484Z,54082.30
2022-10-23T12:07:40.088Z,54083.30
2022-10-23T12:10:04.797Z,54051.23
2022-10-23T12:11:09.065Z,54091.32
2022-10-23T12:12:16.967Z,54104.36
2022-10-23T12:13:25.362Z,54065.27
2022-10-23T12:20:02.022Z,54096.34
2022-10-23T12:25:13.069Z,54097.34
2022-10-23T12:26:18.934Z,54061.25
2022-10-23T12:28:45.975Z,54053.23
2022-10-23T12:29:51.606Z,54060.25
2022-10-23T12:30:56.217Z,54091.32
2022-10-23T12:32:06.092Z,54062.26
2022-10-23T12:33:09.647Z,54041.21
2022-10-23T12:34:13.849Z,54037.20
2022-10-23T12:35:17.345Z,54082.30
2022-10-23T12:36:21.229Z,54038.20
2022-10-23T12:37:30.670Z,54015.15
2022-10-23T12:38:37.534Z,54007.13
2022-10-23T12:39:48.487Z,54039.21
2022-10-23T12:40:58.154Z,54026.18
2022-10-23T12:42:06.269Z,54051.23
2022-10-23T12:43:10.027Z,54037.20
2022-10-23T12:44:19.463Z,54030.18
2022-10-23T12:45:26.418Z,54004.12
2022-10-23T12:46:32.685Z,54030.18
2022-10-23T12:47:39.851Z,53990.09
2022-10-23T12:48:48.689Z,53994.10
2022-10-23T12:49:57.385Z,54023.17
2022-10-23T12:53:45.220Z,54006.13
2022-10-23T12:54:55.309Z,54026.18
2022-10-23T12:56:13.013Z,54016.15
2022-10-23T12:57:28.583Z,54012.14
2022-10-23T12:58:43.861Z,53990.09
2022-10-23T12:59:59.260Z,53984.08
2022-10-23T13:02:35.604Z,53993.10
2022-10-23T13:03:40.806Z,54003.12
2022-10-23T13:04:45.527Z,53961.02
2022-10-23T13:05:56.557Z,53970.05
2022-10-23T13:07:11.500Z,53982.07
2022-10-23T13:08:16.470Z,53955.01
2022-10-23T13:12:11.613Z,53952.00
2022-10-23T13:13:22.822Z,53952.00
2022-10-23T13:14:26.635Z,53935.97
2022-10-23T13:16:53.263Z,53904.90
2022-10-23T13:18:04.469Z,53934.97
2022-10-23T13:19:20.419Z,53944.99
2022-10-23T13:20:30.990Z,53912.92
2022-10-23T13:22:44.694Z,53923.94
2022-10-23T13:25:11.365Z,53909.91
2022-10-23T13:26:15.341Z,53959.02
2022-10-23T13:27:19.355Z,53898.88
2022-10-23T13:28:24.517Z,53924.95
2022-10-23T13:29:28.092Z,53910.91
2022-10-23T13:30:32.270Z,53887.86
2022-10-23T13:31:39.356Z,53916.93
2022-10-23T13:32:43.682Z,53911.91
2022-10-23T13:33:53.835Z,53889.86
2022-10-23T13:35:04.377Z,53906.90
2022-10-23T13:36:11.545Z,53913.92
2022-10-23T13:37:17.079Z,53913.92
2022-10-23T13:38:32.794Z,53897.88
2022-10-23T13:39:37.682Z,53882.85
2022-10-23T13:40:43.100Z,53896.88
2022-10-23T13:41:55.104Z,53916.93
2022-10-23T13:42:59.098Z,53913.92
2022-10-23T13:44:12.745Z,53881.85
2022-10-23T13:45:19.402Z,53860.80
2022-10-23T13:46:22.882Z,53900.89
2022-10-23T13:47:26.372Z,53897.88
2022-10-23T13:49:53.822Z,53885.86
2022-10-23T13:50:59.673Z,53917.93
2022-10-23T13:52:04.596Z,53853.78
2022-10-23T13:53:09.638Z,53886.86
2022-10-23T13:54:24.191Z,53888.86
2022-10-23T13:55:27.543Z,53876.84
2022-10-23T13:56:30.939Z,53891.87
2022-10-23T13:57:46.919Z,53863.80
2022-10-23T13:59:05.249Z,53901.89
2022-10-23T14:00:14.085Z,53893.87
2022-10-23T14:01:19.675Z,53878.84
2022-10-23T14:02:22.987Z,53885.86
2022-10-23T14:03:26.576Z,53877.84
2022-10-23T14:04:30.174Z,53874.83
2022-10-23T14:06:57.625Z,53881.85
2022-10-23T14:08:18.119Z,53900.89
2022-10-23T14:09:32.480Z,53856.79
2022-10-23T14:10:35.744Z,53925.95
2022-10-23T14:11:40.772Z,53904.90
2022-10-23T14:12:44.822Z,53891.87
2022-10-23T14:13:51.171Z,53938.98
2022-10-23T14:14:55.109Z,53884.85
2022-10-23T14:15:58.638Z,53858.79
2022-10-23T14:17:07.664Z,53869.82
2022-10-23T14:18:11.748Z,53896.88
2022-10-23T14:19:16.152Z,53913.92
2022-10-23T14:20:30.238Z,53865.81
2022-10-23T14:21:36.896Z,53859.80
2022-10-23T14:22:40.433Z,53882.85
2022-10-23T14:23:44.144Z,53858.79
2022-10-23T14:24:49.578Z,53913.92
2022-10-23T14:25:54.391Z,53836.75
2022-10-23T14:27:02.489Z,53905.90
2022-10-23T14:28:13.763Z,53879.84
2022-10-23T14:30:39.476Z,53907.91
2022-10-23T14:31:49.292Z,53883.85
2022-10-23T14:32:55.470Z,53876.84
2022-10-23T14:33:59.366Z,53888.86
2022-10-23T14:35:11.246Z,53899.89
2022-10-23T14:36:14.892Z,53876.84
2022-10-23T14:37:19.772Z,53853.78
2022-10-23T14:41:12.112Z,53849.77
2022-10-23T14:42:15.921Z,53862.80
2022-10-23T14:43:20.219Z,53817.70
2022-10-23T14:44:23.706Z,53818.70
2022-10-23T14:45:27.195Z,53828.73
2022-10-23T14:46:30.983Z,53826.72
2022-10-23T14:47:34.371Z,53838.75
2022-10-23T14:48:38.274Z,53819.71
2022-10-23T14:49:41.862Z,53823.71
2022-10-23T14:50:45.354Z,53828.73
2022-10-23T14:51:48.642Z,53834.74
2022-10-23T14:52:52.281Z,53804.67
2022-10-23T14:53:58.712Z,53829.73
2022-10-23T14:55:00.756Z,53801.67
2022-10-23T14:56:04.537Z,53828.73
2022-10-23T14:57:07.697Z,53810.68
2022-10-23T14:58:11.212Z,53810.68
2022-10-23T14:59:14.805Z,53821.71
2022-10-23T15:00:17.890Z,53846.77
2022-10-23T15:01:21.210Z,53825.72
2022-10-23T15:02:25.062Z,53809.68
2022-10-23T15:03:28.452Z,53823.71
2022-10-23T15:04:32.042Z,53839.75
2022-10-23T15:05:35.120Z,53863.80
2022-10-23T15:06:38.609Z,53827.72
2022-10-23T15:07:41.899Z,53828.73
2022-10-23T15:08:45.397Z,53849.77
2022-10-23T15:09:48.678Z,53853.78
2022-10-23T15:10:52.768Z,53861.80
2022-10-23T15:11:56.763Z,53804.67
2022-10-23T15:12:59.950Z,53823.71
2022-10-23T15:14:03.452Z,53820.71
2022-10-23T15:15:09.083Z,53798.66
2022-10-23T15:16:12.176Z,53795.65
2022-10-23T15:17:15.999Z,53822.71
2022-10-23T15:18:20.261Z,53817.70
2022-10-23T15:19:23.240Z,53825.72
2022-10-23T15:20:27.046Z,53790.64
2022-10-23T15:21:30.935Z,53817.70
2022-10-23T15:22:34.241Z,53819.71
2022-10-23T15:23:37.604Z,53781.62
2022-10-23T15:24:40.805Z,53805.68
2022-10-23T15:25:44.085Z,53800.66
2022-10-23T15:26:47.563Z,53761.58
2022-10-23T15:27:51.054Z,53816.70
2022-10-23T15:28:54.957Z,53768.59
2022-10-23T15:29:58.747Z,53778.61
2022-10-23T15:31:02.543Z,53797.66
2022-10-23T15:32:06.244Z,53799.66
2022-10-23T15:33:09.731Z,53807.68
2022-10-23T15:34:13.624Z,53800.66
2022-10-23T15:35:17.167Z,53759.57
2022-10-23T15:36:21.226Z,53778.61
2022-10-23T15:37:24.707Z,53781.62
2022-10-23T15:38:27.992Z,53773.60
2022-10-23T15:39:31.598Z,53763.58
2022-10-23T15:40:35.274Z,53786.63
2022-10-23T15:41:38.869Z,53764.58
2022-10-23T15:42:42.375Z,53802.67
2022-10-23T15:43:46.351Z,53756.57
2022-10-23T15:44:49.954Z,53737.52
2022-10-23T15:45:53.436Z,53774.61
2022-10-23T15:46:56.457Z,53781.62
2022-10-23T15:47:59.501Z,53745.54
2022-10-23T15:49:03.294Z,53769.59
2022-10-23T15:50:07.094Z,53754.56
2022-10-23T15:51:10.582Z,53783.62
2022-10-23T15:52:14.120Z,53785.63
2022-10-23T15:53:17.455Z,53797.66
2022-10-23T15:54:21.374Z,53767.59
2022-10-23T15:55:24.945Z,53790.64
2022-10-23T15:56:28.123Z,53763.58
2022-10-23T15:57:31.608Z,53777.61
2022-10-23T15:58:34.798Z,53771.60
2022-10-23T15:59:38.078Z,53766.59
2022-10-23T16:00:41.470Z,53752.55
2022-10-23T16:01:45.598Z,53774.61
2022-10-23T16:02:48.954Z,53750.55
2022-10-23T16:03:53.155Z,53796.65
2022-10-23T16:04:56.296Z,53773.60
2022-10-23T16:05:59.729Z,53744.54
2022-10-23T16:07:02.713Z,53764.58
2022-10-23T16:08:06.607Z,53736.52
2022-10-23T16:09:10.406Z,53783.62
2022-10-23T16:10:13.983Z,53787.64
2022-10-23T16:11:17.684Z,53765.59
2022-10-23T16:12:21.172Z,53732.51
2022-10-23T16:13:24.767Z,53769.59
2022-10-23T16:14:28.358Z,53766.59
2022-10-23T16:15:31.645Z,53767.59
2022-10-23T16:16:35.637Z,53753.56
2022-10-23T16:17:38.615Z,53763.58
2022-10-23T16:18:42.209Z,53776.61
2022-10-23T16:19:45.697Z,53769.59
2022-10-23T16:20:48.776Z,53788.64
2022-10-23T16:21:51.650Z,53771.60
2022-10-23T16:22:54.936Z,53774.61
2022-10-23T16:23:58.223Z,53748.55
2022-10-23T16:25:01.915Z,53798.66
2022-10-23T16:26:04.898Z,53777.61
2022-10-23T16:27:08.490Z,53794.65
2022-10-23T16:28:12.278Z,53772.60
2022-10-23T16:29:15.668Z,53778.61
2022-10-23T16:30:19.057Z,53795.65
2022-10-23T16:31:22.646Z,53747.55
2022-10-23T16:32:26.234Z,53772.60
2022-10-23T16:33:29.319Z,53785.63
2022-10-23T16:34:32.596Z,53780.62
2022-10-23T16:35:35.981Z,53766.59
2022-10-23T16:36:39.673Z,53779.62
2022-10-23T16:37:43.362Z,53761.58
2022-10-23T16:38:46.660Z,53781.62
2022-10-23T16:39:49.938Z,53766.59
2022-10-23T16:40:53.028Z,53792.64
2022-10-23T16:41:56.609Z,53781.62
2022-10-23T16:42:59.998Z,53773.60
2022-10-23T16:44:03.791Z,53735.52
2022-10-23T16:45:07.694Z,53761.58
2022-10-23T16:46:11.185Z,53780.62
2022-10-23T16:47:15.383Z,53773.60
2022-10-23T16:48:18.777Z,53793.65
2022-10-23T16:49:23.191Z,53757.57
2022-10-23T16:50:27.530Z,53776.61
2022-10-23T16:51:31.195Z,53788.64
2022-10-23T16:52:34.675Z,53769.59
2022-10-23T16:53:38.260Z,53773.60
2022-10-23T16:54:41.651Z,53790.64
2022-10-23T16:55:45.454Z,53768.59
2022-10-23T16:56:49.039Z,53750.55
2022-10-23T16:57:52.627Z,53780.62
2022-10-23T16:58:55.481Z,53787.64
2022-10-23T16:59:58.478Z,53768.59
2022-10-23T17:01:02.362Z,53795.65
2022-10-23T17:02:05.970Z,53793.65
2022-10-23T17:03:09.673Z,53782.62
2022-10-23T17:04:13.061Z,53799.66
2022-10-23T17:05:16.340Z,53812.69
2022-10-23T17:06:20.032Z,53805.68
2022-10-23T17:07:24.105Z,53816.70
2022-10-23T17:08:27.937Z,53795.65
2022-10-23T17:09:30.702Z,53783.62
2022-10-23T17:10:34.086Z,53747.55
2022-10-23T17:11:36.956Z,53821.71
2022-10-23T17:12:39.768Z,53781.62
2022-10-23T17:13:42.920Z,53775.61
2022-10-23T17:14:46.205Z,53829.73
2022-10-23T17:15:50.007Z,53789.64
2022-10-23T17:16:53.385Z,53781.62
2022-10-23T17:17:56.463Z,53778.61
2022-10-23T17:19:00.157Z,53815.70
2022-10-23T17:20:03.857Z,53782.62
2022-10-23T17:21:07.752Z,53802.67
2022-10-23T17:22:11.862Z,53801.67
2022-10-23T17:23:15.352Z,53825.72
2022-10-23T17:24:19.156Z,53814.70
2022-10-23T17:25:23.143Z,53784.63
2022-10-23T17:26:26.637Z,53795.65
2022-10-23T17:27:30.129Z,53802.67
2022-10-23T17:28:33.912Z,53804.67
2022-10-23T17:29:37.412Z,53785.63
2022-10-23T17:30:40.792Z,53811.69
2022-10-23T17:31:44.180Z,53746.54
2022-10-23T17:32:47.850Z,53797.66
2022-10-23T17:33:50.843Z,53805.68
2022-10-23T17:34:53.930Z,53789.64
2022-10-23T17:35:57.418Z,53810.68
2022-10-23T17:37:00.908Z,53779.62
2022-10-23T17:38:04.508Z,53830.73
2022-10-23T17:39:08.093Z,53782.62
2022-10-23T17:40:11.585Z,53827.72
2022-10-23T17:41:15.077Z,53809.68
2022-10-23T17:42:18.664Z,53803.67
2022-10-23T17:43:21.844Z,53813.69
2022-10-23T17:44:25.330Z,53798.66
2022-10-23T17:45:28.407Z,53819.71
2022-10-23T17:46:32.000Z,53795.65
2022-10-23T17:47:35.393Z,53769.59
2022-10-23T17:48:41.570Z,53802.67
2022-10-23T17:49:46.171Z,53808.68
2022-10-23T17:50:49.544Z,53831.73
2022-10-23T17:51:52.746Z,53825.72
2022-10-23T17:52:56.007Z,53815.70
2022-10-23T17:53:59.804Z,53787.64
2022-10-23T17:55:03.081Z,53813.69
2022-10-23T17:56:06.574Z,53791.64
2022-10-23T17:57:10.276Z,53813.69
2022-10-23T17:58:13.244Z,53787.64
2022-10-23T17:59:16.945Z,53769.59
2022-10-23T18:00:20.220Z,53805.68
2022-10-23T18:01:23.950Z,53788.64
2022-10-23T18:02:27.454Z,53809.68
2022-10-23T18:03:30.902Z,53865.81
2022-10-23T18:04:33.670Z,53783.62
2022-10-23T18:05:36.747Z,53807.68
2022-10-23T18:06:39.426Z,53781.62
2022-10-23T18:07:43.022Z,53833.74
2022-10-23T18:08:45.987Z,53835.74
2022-10-23T18:09:49.679Z,53803.67
2022-10-23T18:10:53.687Z,53821.71
2022-10-23T18:11:57.889Z,53826.72
2022-10-23T18:13:02.612Z,53807.68
2022-10-23T18:14:05.995Z,53816.70
2022-10-23T18:15:10.412Z,53813.69
2022-10-23T18:16:13.891Z,53836.75
2022-10-23T18:17:17.384Z,53822.71
